createdAt,value
2017-12-21T00:01:25.185Z,7.92
2017-12-21T00:03:52.189Z,7.91
2017-12-21T00:06:22.006Z,7.89
2017-12-21T00:08:48.993Z,7.86
2017-12-21T00:11:15.994Z,7.85
2017-12-21T00:13:42.908Z,7.90
2017-12-21T00:16:09.832Z,7.93
2017-12-21T00:18:36.816Z,7.93
2017-12-21T00:21:04.472Z,7.89
2017-12-21T00:23:32.084Z,7.93
2017-12-21T00:25:59.063Z,7.95
2017-12-21T00:28:25.931Z,7.92
2017-12-21T00:30:53.034Z,7.94
2017-12-21T00:33:20.817Z,7.94
2017-12-21T00:35:47.696Z,7.96
2017-12-21T00:38:15.930Z,7.92
2017-12-21T00:40:42.925Z,7.93
2017-12-21T00:43:10.729Z,7.95
2017-12-21T00:45:37.605Z,7.91
2017-12-21T00:48:04.492Z,8.02
2017-12-21T00:50:32.219Z,7.99
2017-12-21T00:52:59.171Z,7.94
2017-12-21T00:55:26.028Z,7.98
2017-12-21T00:57:52.894Z,8.02
2017-12-21T01:00:19.784Z,7.97
2017-12-21T01:02:46.700Z,7.93
2017-12-21T01:05:13.559Z,7.93
2017-12-21T01:07:40.454Z,7.99
2017-12-21T01:10:07.331Z,7.96
2017-12-21T01:12:34.187Z,8.00
2017-12-21T01:15:01.100Z,8.00
2017-12-21T01:17:27.970Z,8.01
2017-12-21T01:19:54.836Z,7.98
2017-12-21T01:22:21.717Z,7.98
2017-12-21T01:24:48.564Z,8.05
2017-12-21T01:27:15.406Z,8.00
2017-12-21T01:29:42.990Z,7.99
2017-12-21T01:32:09.878Z,7.98
2017-12-21T01:34:36.761Z,8.01
2017-12-21T01:37:03.661Z,8.05
2017-12-21T01:39:31.333Z,8.04
2017-12-21T01:41:58.197Z,8.03
2017-12-21T01:44:25.094Z,7.98
2017-12-21T01:46:52.058Z,7.99
2017-12-21T01:49:18.937Z,8.04
2017-12-21T01:51:45.863Z,8.02
2017-12-21T01:54:13.513Z,8.00
2017-12-21T01:56:40.424Z,8.00
2017-12-21T01:59:07.385Z,8.04
2017-12-21T02:01:34.282Z,8.05
2017-12-21T02:04:01.261Z,8.05
2017-12-21T02:06:28.179Z,8.04
2017-12-21T02:08:56.617Z,8.04
2017-12-21T02:11:24.491Z,8.06
2017-12-21T02:13:51.447Z,8.08
2017-12-21T02:16:18.413Z,8.07
2017-12-21T02:18:45.258Z,8.08
2017-12-21T02:21:12.264Z,8.07
2017-12-21T02:23:39.297Z,8.02
2017-12-21T02:50:40.998Z,8.07
2017-12-21T02:53:07.930Z,8.07
2017-12-21T03:13:35.689Z,8.10
2017-12-21T03:16:02.656Z,8.10
2017-12-21T03:18:29.556Z,8.05
2017-12-21T03:20:56.409Z,8.06
2017-12-21T03:23:23.295Z,8.05
2017-12-21T03:25:50.916Z,8.03
2017-12-21T03:28:18.536Z,8.08
2017-12-21T03:30:45.433Z,8.05
2017-12-21T03:33:12.345Z,8.08
2017-12-21T03:35:39.189Z,8.03
2017-12-21T03:38:06.108Z,8.05
2017-12-21T03:40:33.693Z,8.02
2017-12-21T03:43:00.564Z,8.04
2017-12-21T03:45:27.440Z,8.09
2017-12-21T03:47:54.288Z,8.06
2017-12-21T03:50:21.162Z,8.05
2017-12-21T03:52:48.031Z,8.05
2017-12-21T03:55:14.922Z,8.07
2017-12-21T03:57:41.842Z,8.05
2017-12-21T04:00:08.751Z,8.04
2017-12-21T04:02:35.636Z,8.06
2017-12-21T04:05:02.511Z,8.07
2017-12-21T04:07:30.142Z,8.04
2017-12-21T04:09:56.966Z,8.04
2017-12-21T04:12:23.905Z,8.04
2017-12-21T04:14:51.496Z,8.03
2017-12-21T04:17:18.372Z,8.04
2017-12-21T04:19:45.288Z,8.04
2017-12-21T04:22:12.117Z,8.05
2017-12-21T04:24:38.963Z,8.01
2017-12-21T04:27:06.592Z,8.02
2017-12-21T04:29:33.488Z,8.01
2017-12-21T04:32:00.327Z,8.01
2017-12-21T04:34:27.252Z,8.00
2017-12-21T04:36:54.306Z,8.00
2017-12-21T04:39:21.221Z,7.99
2017-12-21T04:41:48.894Z,8.02
2017-12-21T04:44:15.749Z,7.99
2017-12-21T04:46:42.637Z,7.98
2017-12-21T04:49:09.477Z,8.01
2017-12-21T04:51:36.375Z,8.00
2017-12-21T04:54:03.248Z,8.01
2017-12-21T04:56:30.202Z,7.99
2017-12-21T04:58:57.064Z,7.98
2017-12-21T05:01:23.962Z,8.00
2017-12-21T05:03:50.931Z,8.00
2017-12-21T05:06:17.859Z,8.00
2017-12-21T05:08:44.762Z,7.97
2017-12-21T05:11:15.163Z,7.99
2017-12-21T05:13:44.122Z,8.03
2017-12-21T05:16:11.088Z,8.01
2017-12-21T05:18:49.823Z,8.03
2017-12-21T05:27:22.821Z,8.02
2017-12-21T05:29:50.458Z,8.02
2017-12-21T05:32:17.251Z,8.02
2017-12-21T05:34:44.105Z,8.02
2017-12-21T05:37:14.229Z,7.99
2017-12-21T05:39:41.070Z,8.00
2017-12-21T05:42:07.935Z,8.01
2017-12-21T05:44:34.884Z,8.00
2017-12-21T05:47:01.841Z,7.98
2017-12-21T05:49:28.851Z,7.99
2017-12-21T05:51:56.309Z,8.02
2017-12-21T05:54:23.941Z,8.00
2017-12-21T05:56:50.812Z,8.02
2017-12-21T05:59:17.783Z,8.02
2017-12-21T06:01:44.705Z,8.01
2017-12-21T06:04:11.630Z,7.98
2017-12-21T06:06:38.550Z,8.03
2017-12-21T06:09:05.361Z,8.02
2017-12-21T06:11:33.027Z,8.01
2017-12-21T06:13:59.886Z,8.01
2017-12-21T06:16:26.739Z,8.02
2017-12-21T06:18:53.600Z,8.03
2017-12-21T06:21:20.483Z,8.03
2017-12-21T06:23:47.322Z,8.03
2017-12-21T06:26:14.170Z,8.04
2017-12-21T06:28:41.081Z,8.01
2017-12-21T06:31:08.679Z,8.05
2017-12-21T06:33:35.567Z,8.04
2017-12-21T06:36:02.540Z,8.03
2017-12-21T06:38:29.426Z,8.01
2017-12-21T06:40:56.614Z,8.03
2017-12-21T06:43:23.486Z,8.05
2017-12-21T06:45:51.096Z,8.02
2017-12-21T06:48:18.648Z,8.03
2017-12-21T06:50:45.484Z,8.04
2017-12-21T06:53:12.286Z,8.03
2017-12-21T06:55:39.186Z,8.02
2017-12-21T06:58:05.964Z,8.05
2017-12-21T07:00:33.069Z,8.03
2017-12-21T07:02:59.921Z,8.03
2017-12-21T07:05:26.728Z,8.02
2017-12-21T07:07:53.597Z,8.06
2017-12-21T07:10:20.447Z,8.06
2017-12-21T07:12:47.211Z,8.04
2017-12-21T07:15:14.041Z,8.08
2017-12-21T07:17:40.833Z,8.07
2017-12-21T07:20:07.657Z,8.08
2017-12-21T07:22:34.496Z,8.07
2017-12-21T07:25:02.033Z,8.05
2017-12-21T07:27:28.820Z,8.06
2017-12-21T07:29:55.810Z,8.08
2017-12-21T07:32:22.799Z,8.07
2017-12-21T07:34:49.646Z,8.08
2017-12-21T07:37:16.568Z,8.05
2017-12-21T07:39:43.503Z,8.07
2017-12-21T07:42:10.404Z,8.05
2017-12-21T07:44:38.021Z,8.05
2017-12-21T07:47:06.012Z,8.06
2017-12-21T07:49:32.858Z,8.07
2017-12-21T07:51:59.631Z,8.07
2017-12-21T07:54:26.406Z,8.06
2017-12-21T07:56:53.197Z,8.08
2017-12-21T07:59:20.003Z,8.09
2017-12-21T08:01:46.824Z,8.11
2017-12-21T08:04:13.661Z,8.08
2017-12-21T08:06:40.604Z,8.08
2017-12-21T08:09:07.504Z,8.09
2017-12-21T08:11:34.359Z,8.08
2017-12-21T08:14:01.234Z,8.08
2017-12-21T08:16:28.134Z,8.10
2017-12-21T08:18:55.097Z,8.10
2017-12-21T08:21:21.926Z,8.10
2017-12-21T08:23:48.768Z,8.09
2017-12-21T08:26:15.621Z,8.12
2017-12-21T08:28:42.464Z,8.14
2017-12-21T08:31:09.354Z,8.14
2017-12-21T08:33:36.174Z,8.15
2017-12-21T08:36:03.057Z,8.17
2017-12-21T08:38:30.172Z,8.14
2017-12-21T08:40:57.776Z,8.21
2017-12-21T08:43:24.638Z,8.18
2017-12-21T08:45:51.534Z,8.21
2017-12-21T08:48:18.358Z,8.20
2017-12-21T08:50:45.242Z,8.24
2017-12-21T08:53:12.101Z,8.20
2017-12-21T08:55:38.953Z,8.28
2017-12-21T08:58:05.892Z,8.25
2017-12-21T09:00:33.487Z,8.27
2017-12-21T09:03:00.371Z,8.25
2017-12-21T09:05:33.444Z,8.34
2017-12-21T09:08:04.100Z,8.31
2017-12-21T09:10:30.966Z,8.31
2017-12-21T09:13:05.964Z,8.32
2017-12-21T09:15:47.992Z,8.31
2017-12-21T09:18:15.782Z,8.34
2017-12-21T09:20:46.724Z,8.34
2017-12-21T09:23:13.644Z,8.32
2017-12-21T09:25:40.517Z,8.35
2017-12-21T09:28:07.387Z,8.35
2017-12-21T09:30:34.283Z,8.37
2017-12-21T09:33:01.932Z,8.38
2017-12-21T09:35:28.802Z,8.38
2017-12-21T09:37:55.649Z,8.41
2017-12-21T09:40:22.565Z,8.39
2017-12-21T09:42:49.552Z,8.40
2017-12-21T09:45:17.218Z,8.42
2017-12-21T09:47:44.119Z,8.43
2017-12-21T09:50:10.942Z,8.43
2017-12-21T09:52:37.791Z,8.42
2017-12-21T09:55:05.367Z,8.41
2017-12-21T09:57:32.945Z,8.44
2017-12-21T10:00:01.037Z,8.40
2017-12-21T10:02:28.640Z,8.44
2017-12-21T10:04:55.475Z,8.44
2017-12-21T10:07:23.086Z,8.45
2017-12-21T10:09:49.904Z,8.46
2017-12-21T10:12:17.514Z,8.44
2017-12-21T10:14:44.330Z,8.44
2017-12-21T10:17:11.177Z,8.46
2017-12-21T10:19:38.077Z,8.45
2017-12-21T10:22:05.680Z,8.49
2017-12-21T10:24:33.267Z,8.47
2017-12-21T10:27:00.134Z,8.47
2017-12-21T10:29:26.975Z,8.48
2017-12-21T10:31:53.817Z,8.50
2017-12-21T10:34:21.412Z,8.53
2017-12-21T10:36:48.302Z,8.50
2017-12-21T10:39:15.120Z,8.51
2017-12-21T10:41:42.672Z,8.55
2017-12-21T10:44:09.475Z,8.53
2017-12-21T10:46:36.374Z,8.51
2017-12-21T10:49:03.215Z,8.56
2017-12-21T10:51:30.113Z,8.57
2017-12-21T10:53:57.023Z,8.61
2017-12-21T10:56:23.862Z,8.63
2017-12-21T10:58:51.719Z,8.61
2017-12-21T11:01:18.564Z,8.63
2017-12-21T11:03:45.399Z,8.64
2017-12-21T11:06:12.253Z,8.63
2017-12-21T11:08:39.097Z,8.67
2017-12-21T11:11:06.717Z,8.68
2017-12-21T11:13:33.576Z,8.68
2017-12-21T11:16:00.487Z,8.66
2017-12-21T11:18:27.423Z,8.67
2017-12-21T11:20:54.302Z,8.71
2017-12-21T11:23:21.151Z,8.70
2017-12-21T11:25:48.002Z,8.73
2017-12-21T11:28:14.842Z,8.72
2017-12-21T11:30:41.714Z,8.70
2017-12-21T11:33:08.593Z,8.69
2017-12-21T11:35:35.375Z,8.70
2017-12-21T11:38:02.250Z,8.72
2017-12-21T11:40:29.853Z,8.72
2017-12-21T11:42:56.708Z,8.78
2017-12-21T11:45:23.873Z,8.78
2017-12-21T11:47:50.721Z,8.79
2017-12-21T11:50:18.399Z,8.80
2017-12-21T11:52:45.271Z,8.79
2017-12-21T11:55:12.069Z,8.82
2017-12-21T11:57:38.863Z,8.81
2017-12-21T12:00:05.806Z,8.87
2017-12-21T12:02:32.629Z,8.92
2017-12-21T12:04:59.524Z,8.83
2017-12-21T12:07:26.323Z,8.82
2017-12-21T12:09:53.200Z,8.87
2017-12-21T12:12:19.999Z,8.93
2017-12-21T12:14:46.795Z,8.91
2017-12-21T12:17:13.592Z,8.93
2017-12-21T12:19:40.525Z,8.89
2017-12-21T12:22:07.435Z,8.88
2017-12-21T12:24:34.418Z,8.93
2017-12-21T12:27:01.519Z,8.93
2017-12-21T12:29:29.208Z,8.99
2017-12-21T12:31:56.867Z,8.90
2017-12-21T12:34:23.846Z,8.90
2017-12-21T12:36:50.807Z,8.90
2017-12-21T12:39:18.537Z,8.93
2017-12-21T12:41:45.487Z,8.94
2017-12-21T12:44:12.392Z,8.94
2017-12-21T12:46:39.315Z,8.94
2017-12-21T12:49:06.362Z,8.93
2017-12-21T12:51:33.321Z,8.93
2017-12-21T12:54:00.993Z,8.95
2017-12-21T12:56:28.617Z,8.98
2017-12-21T12:58:55.496Z,8.98
2017-12-21T13:01:22.301Z,8.94
2017-12-21T13:03:51.351Z,8.91
2017-12-21T13:06:24.165Z,9.01
2017-12-21T13:08:51.051Z,9.01
2017-12-21T13:11:18.025Z,9.01
2017-12-21T13:13:45.150Z,8.93
2017-12-21T13:49:22.203Z,9.02
2017-12-21T13:51:48.973Z,9.00
2017-12-21T13:54:15.729Z,9.00
2017-12-21T13:56:42.521Z,8.98
2017-12-21T13:59:09.314Z,9.04
2017-12-21T14:01:36.173Z,8.96
2017-12-21T14:04:02.967Z,9.00
2017-12-21T14:06:29.771Z,9.02
2017-12-21T14:08:56.562Z,8.98
2017-12-21T14:11:23.327Z,8.95
2017-12-21T14:13:50.100Z,9.00
2017-12-21T14:16:16.920Z,9.00
2017-12-21T14:18:43.691Z,9.01
2017-12-21T14:21:10.496Z,9.02
2017-12-21T14:23:37.301Z,9.10
2017-12-21T14:26:04.068Z,9.08
2017-12-21T14:28:30.834Z,9.07
2017-12-21T14:30:57.597Z,9.10
2017-12-21T14:33:24.395Z,9.12
2017-12-21T14:35:51.204Z,9.07
2017-12-21T14:38:17.985Z,9.09
2017-12-21T14:40:44.792Z,9.11
2017-12-21T14:43:12.321Z,9.11
2017-12-21T14:45:39.255Z,9.09
2017-12-21T14:48:06.030Z,9.09
2017-12-21T14:50:33.834Z,9.12
2017-12-21T14:53:00.611Z,9.14
2017-12-21T14:55:27.416Z,9.13
2017-12-21T14:57:54.180Z,9.11
2017-12-21T15:00:20.945Z,9.14
2017-12-21T15:02:47.729Z,9.13
2017-12-21T15:05:14.531Z,9.11
2017-12-21T15:07:42.094Z,9.14
2017-12-21T15:10:08.949Z,9.13
2017-12-21T15:12:35.722Z,9.13
2017-12-21T15:15:02.500Z,9.11
2017-12-21T15:17:30.056Z,9.14
2017-12-21T15:19:56.839Z,9.12
2017-12-21T15:22:24.388Z,9.06
2017-12-21T15:24:51.195Z,9.16
2017-12-21T15:27:18.071Z,9.23
2017-12-21T15:29:44.874Z,9.14
2017-12-21T15:32:11.634Z,9.15
2017-12-21T15:34:38.416Z,9.13
2017-12-21T15:37:05.183Z,9.18
2017-12-21T15:39:31.939Z,9.11
2017-12-21T15:41:58.698Z,9.16
2017-12-21T15:44:26.234Z,9.14
2017-12-21T15:46:53.160Z,9.17
2017-12-21T15:49:19.968Z,9.23
2017-12-21T15:51:46.797Z,9.25
2017-12-21T15:54:13.561Z,9.20
2017-12-21T15:56:40.335Z,9.24
2017-12-21T15:59:07.138Z,9.26
2017-12-21T16:01:33.940Z,9.28
2017-12-21T16:04:00.698Z,9.18
2017-12-21T16:06:27.504Z,9.16
2017-12-21T16:08:55.108Z,9.16
2017-12-21T16:11:21.980Z,9.16
2017-12-21T16:13:48.772Z,9.21
2017-12-21T16:16:15.569Z,9.20
2017-12-21T16:18:43.181Z,9.16
2017-12-21T16:21:10.006Z,9.16
2017-12-21T16:23:36.824Z,9.11
2017-12-21T16:26:03.586Z,9.16
2017-12-21T16:28:30.358Z,9.11
2017-12-21T16:30:57.137Z,9.11
2017-12-21T16:33:24.646Z,9.09
2017-12-21T16:35:51.468Z,9.07
2017-12-21T16:38:18.274Z,9.08
2017-12-21T16:40:45.105Z,9.08
2017-12-21T16:43:12.670Z,9.06
2017-12-21T16:45:39.465Z,9.10
2017-12-21T16:48:06.359Z,9.07
2017-12-21T16:50:33.154Z,9.08
2017-12-21T16:53:00.013Z,9.02
2017-12-21T16:55:26.852Z,9.05
2017-12-21T16:57:53.671Z,9.07
2017-12-21T17:00:20.510Z,9.08
2017-12-21T17:02:48.083Z,9.04
2017-12-21T17:05:14.894Z,9.08
2017-12-21T17:07:41.723Z,9.08
2017-12-21T17:10:08.556Z,9.08
2017-12-21T17:12:35.327Z,9.05
2017-12-21T17:15:02.933Z,9.05
2017-12-21T17:17:29.729Z,9.12
2017-12-21T17:19:56.595Z,9.12
2017-12-21T17:22:23.394Z,9.07
2017-12-21T17:24:50.910Z,9.08
2017-12-21T17:27:18.491Z,9.08
2017-12-21T17:29:45.256Z,9.08
2017-12-21T17:32:12.075Z,9.08
2017-12-21T17:34:39.601Z,9.05
2017-12-21T17:37:06.506Z,9.08
2017-12-21T17:39:33.327Z,9.09
2017-12-21T17:42:00.149Z,9.12
2017-12-21T17:44:26.934Z,9.09
2017-12-21T17:46:54.592Z,9.09
2017-12-21T17:49:21.378Z,9.10
2017-12-21T17:51:48.207Z,9.10
2017-12-21T17:54:14.986Z,9.08
2017-12-21T17:56:41.828Z,9.13
2017-12-21T17:59:08.648Z,9.10
2017-12-21T18:01:35.446Z,9.05
2017-12-21T18:04:02.336Z,9.09
2017-12-21T18:06:29.153Z,9.12
2017-12-21T18:08:56.686Z,9.10
2017-12-21T18:11:23.574Z,9.12
2017-12-21T18:13:50.416Z,9.11
2017-12-21T18:16:17.261Z,9.07
2017-12-21T18:18:44.148Z,9.09
2017-12-21T18:21:10.933Z,9.08
2017-12-21T18:23:38.499Z,9.10
2017-12-21T18:26:05.305Z,9.10
2017-12-21T18:28:32.136Z,9.04
2017-12-21T18:30:59.717Z,9.08
2017-12-21T18:33:27.267Z,9.08
2017-12-21T18:35:54.135Z,9.08
2017-12-21T18:38:20.991Z,9.10
2017-12-21T18:40:47.839Z,9.10
2017-12-21T18:43:14.661Z,9.07
2017-12-21T18:45:41.463Z,9.10
2017-12-21T18:48:08.286Z,9.09
2017-12-21T18:50:35.150Z,9.07
2017-12-21T18:53:01.991Z,9.04
2017-12-21T18:55:29.578Z,9.06
2017-12-21T18:57:56.386Z,9.04
2017-12-21T19:00:23.270Z,9.08
2017-12-21T19:02:50.114Z,9.10
2017-12-21T19:49:00.532Z,9.02
2017-12-21T19:51:30.907Z,9.05
2017-12-21T19:54:00.458Z,9.02
2017-12-21T19:56:32.911Z,9.00
2017-12-21T19:59:02.498Z,9.02
2017-12-21T20:01:32.954Z,9.00
2017-12-21T20:04:07.150Z,9.00
2017-12-21T20:06:40.787Z,8.98
2017-12-21T20:09:18.313Z,8.99
2017-12-21T20:11:53.175Z,8.99
2017-12-21T20:14:29.488Z,9.00
2017-12-21T20:17:01.069Z,9.00
2017-12-21T20:19:33.701Z,8.96
2017-12-21T20:22:06.164Z,9.02
2017-12-21T20:24:37.613Z,9.02
2017-12-21T20:27:11.797Z,9.02
2017-12-21T20:29:46.628Z,9.00
2017-12-21T20:34:55.861Z,8.99
2017-12-21T21:00:52.676Z,8.87
2017-12-21T21:03:21.501Z,8.87
2017-12-21T21:05:49.131Z,8.85
2017-12-21T21:08:17.586Z,8.84
2017-12-21T21:10:45.656Z,8.81
2017-12-21T21:13:13.255Z,8.84
2017-12-21T21:15:42.746Z,8.81
2017-12-21T21:18:11.808Z,8.81
2017-12-21T21:20:40.773Z,8.81
2017-12-21T21:23:10.118Z,8.76
2017-12-21T21:25:37.365Z,8.73
2017-12-21T21:28:05.205Z,8.70
2017-12-21T21:30:34.259Z,8.66
2017-12-21T21:33:02.033Z,8.63
2017-12-21T21:35:30.192Z,8.54
2017-12-21T21:37:59.903Z,8.51
2017-12-21T21:40:26.853Z,8.53
2017-12-21T21:42:55.491Z,8.50
2017-12-21T21:45:23.229Z,8.48
2017-12-21T21:47:50.123Z,8.49
2017-12-21T21:50:16.983Z,8.46
2017-12-21T21:52:43.860Z,8.44
2017-12-21T21:55:10.745Z,8.44
2017-12-21T21:57:38.757Z,8.38
2017-12-21T22:00:05.893Z,8.33
2017-12-21T22:02:32.871Z,8.30
2017-12-21T22:05:01.088Z,8.30
2017-12-21T22:07:29.316Z,8.20
2017-12-21T22:09:56.404Z,8.10
2017-12-21T22:12:24.166Z,7.98
2017-12-21T22:14:51.857Z,8.02
2017-12-21T22:17:18.789Z,8.05
2017-12-21T22:19:46.688Z,8.11
2017-12-21T22:22:13.573Z,8.09
2017-12-21T22:24:40.500Z,8.02
2017-12-21T22:27:07.440Z,8.06
2017-12-21T22:29:34.563Z,8.05
2017-12-21T22:32:01.546Z,8.06
2017-12-21T22:34:28.456Z,8.07
2017-12-21T22:36:55.348Z,8.11
2017-12-21T22:39:24.505Z,8.13
2017-12-21T22:41:51.467Z,8.13
2017-12-21T22:44:18.369Z,8.16
2017-12-21T22:46:45.224Z,8.16
2017-12-21T22:49:12.081Z,8.08
2017-12-21T22:51:39.677Z,8.08
2017-12-21T22:54:06.560Z,8.06
2017-12-21T22:56:33.429Z,8.07
2017-12-21T22:59:00.369Z,8.02
2017-12-21T23:01:27.233Z,8.03
2017-12-21T23:03:56.119Z,8.06
2017-12-21T23:06:24.131Z,8.07
2017-12-21T23:08:51.150Z,8.05
2017-12-21T23:11:18.696Z,8.07
2017-12-21T23:13:45.629Z,8.10
2017-12-21T23:16:13.644Z,8.16
2017-12-21T23:18:40.519Z,8.24
2017-12-21T23:21:07.514Z,8.25
2017-12-21T23:23:35.186Z,8.26
2017-12-21T23:26:02.939Z,8.27
2017-12-21T23:28:29.826Z,8.30
2017-12-21T23:30:56.678Z,8.32
2017-12-21T23:33:23.970Z,8.31
2017-12-21T23:35:50.797Z,8.33
2017-12-21T23:38:18.164Z,8.27
2017-12-21T23:40:45.141Z,8.24
2017-12-21T23:43:12.019Z,8.24
2017-12-21T23:45:38.918Z,8.21
2017-12-21T23:48:05.818Z,8.20
2017-12-21T23:50:32.742Z,8.20
2017-12-21T23:52:59.625Z,8.21
2017-12-21T23:55:26.518Z,8.21
2017-12-21T23:57:54.239Z,8.22
